Time;durP1;ratioP1;P1;durP2;ratioP2;P2;SDS_P1;SDS_P2;PMS_P1;PMS_P2;Temp;Humidity;BMP_temperature;BMP_pressure;BME280_temperature;BME280_humidity;BME280_pressure;Samples;Min_cycle;Max_cycle;Signal;HPM_P1;HPM_P2
2022/08/04 00:00:38;;;;;;;;;;;15.20;99.90;;;;;;4996573;28;19926;-64
2022/08/04 00:03:12;;;;;;;;;;;15.20;99.90;;;;;;5006484;28;19980;-64
2022/08/04 00:05:39;;;;;;;;;;;15.20;99.90;;;;;;5007364;28;19925;-61
2022/08/04 00:08:17;;;;;;;;;;;15.20;99.90;;;;;;5007500;28;19930;-61
2022/08/04 00:10:48;;;;;;;;;;;15.20;99.90;;;;;;5007904;28;19932;-61
2022/08/04 00:13:21;;;;;;;;;;;15.20;99.90;;;;;;5033655;28;19926;-61
2022/08/04 00:15:52;;;;;;;;;;;15.20;99.90;;;;;;4992128;28;19925;-60
2022/08/04 00:18:22;;;;;;;;;;;15.20;99.90;;;;;;5000244;28;19926;-61
2022/08/04 00:20:55;;;;;;;;;;;15.20;99.90;;;;;;5008045;28;19933;-61
2022/08/04 00:23:25;;;;;;;;;;;15.20;99.90;;;;;;5011157;28;19925;-61
2022/08/04 00:25:54;;;;;;;;;;;15.20;99.90;;;;;;5011445;28;19929;-61
2022/08/04 00:28:22;;;;;;;;;;;15.10;99.90;;;;;;5005221;28;19926;-61
2022/08/04 00:30:50;;;;;;;;;;;15.10;99.90;;;;;;4994000;28;19929;-60
2022/08/04 00:33:22;;;;;;;;;;;15.10;99.90;;;;;;5004735;28;19926;-60
2022/08/04 00:35:50;;;;;;;;;;;15.10;99.90;;;;;;5006454;28;20278;-63
2022/08/04 00:38:18;;;;;;;;;;;15.10;99.90;;;;;;5025964;28;19934;-62
2022/08/04 00:40:48;;;;;;;;;;;15.00;99.90;;;;;;5010285;28;20460;-62
2022/08/04 00:43:29;;;;;;;;;;;15.00;99.90;;;;;;5010856;28;19941;-62
2022/08/04 00:45:56;;;;;;;;;;;15.00;99.90;;;;;;5025544;28;19940;-62
2022/08/04 00:48:51;;;;;;;;;;;14.90;99.90;;;;;;5010930;28;19933;-64
2022/08/04 00:51:19;;;;;;;;;;;14.90;99.90;;;;;;4992284;28;19926;-60
2022/08/04 00:54:05;;;;;;;;;;;14.90;99.90;;;;;;5000385;28;19925;-61
2022/08/04 00:56:51;;;;;;;;;;;14.80;99.90;;;;;;5010627;28;19925;-61
2022/08/04 00:59:30;;;;;;;;;;;14.80;99.90;;;;;;5025804;28;19929;-60
2022/08/04 01:02:00;;;;;;;;;;;14.80;99.90;;;;;;5008170;28;19937;-61
2022/08/04 01:04:34;;;;;;;;;;;14.80;99.90;;;;;;5005387;28;19925;-61
2022/08/04 01:07:20;;;;;;;;;;;14.80;99.90;;;;;;5008568;28;19926;-61
2022/08/04 01:10:03;;;;;;;;;;;14.70;99.90;;;;;;4993271;28;19937;-61
2022/08/04 01:12:49;;;;;;;;;;;14.70;99.90;;;;;;5029969;28;19925;-61
2022/08/04 01:15:21;;;;;;;;;;;14.70;99.90;;;;;;4991135;28;19933;-60
2022/08/04 01:18:04;;;;;;;;;;;14.60;99.90;;;;;;4997658;28;19937;-61
2022/08/04 01:20:34;;;;;;;;;;;14.60;99.90;;;;;;5000463;28;19926;-61
2022/08/04 01:23:15;;;;;;;;;;;14.60;99.90;;;;;;5010272;28;19925;-63
2022/08/04 01:25:52;;;;;;;;;;;14.50;99.90;;;;;;5010182;28;19925;-63
2022/08/04 01:28:35;;;;;;;;;;;14.50;99.90;;;;;;5010363;28;19925;-63
2022/08/04 01:31:13;;;;;;;;;;;14.50;99.90;;;;;;5009049;28;19925;-62
2022/08/04 01:33:43;;;;;;;;;;;14.40;99.90;;;;;;5013195;28;19929;-61
2022/08/04 01:36:36;;;;;;;;;;;14.40;99.90;;;;;;5013339;28;20277;-62
2022/08/04 01:41:54;;;;;;;;;;;14.40;99.90;;;;;;4994035;28;20385;-61
2022/08/04 01:44:26;;;;;;;;;;;14.40;99.90;;;;;;4993771;28;19926;-64
2022/08/04 01:49:50;;;;;;;;;;;14.50;99.90;;;;;;5807356;23;19921;-61
2022/08/04 01:52:18;;;;;;;;;;;14.60;99.90;;;;;;4917085;29;19935;-61
2022/08/04 01:54:46;;;;;;;;;;;14.60;99.90;;;;;;4916813;29;19927;-60
2022/08/04 01:57:16;;;;;;;;;;;14.70;99.90;;;;;;4931486;29;19930;-60
2022/08/04 02:00:04;;;;;;;;;;;14.70;99.90;;;;;;4935536;29;19927;-63
2022/08/04 02:02:31;;;;;;;;;;;14.80;99.90;;;;;;4935170;29;19935;-62
2022/08/04 02:04:59;;;;;;;;;;;14.90;99.90;;;;;;4935667;29;19934;-63
2022/08/04 02:07:38;;;;;;;;;;;15.00;99.90;;;;;;4934962;29;19927;-63
2022/08/04 02:10:05;;;;;;;;;;;15.00;99.90;;;;;;4915441;29;20397;-63
2022/08/04 02:12:46;;;;;;;;;;;15.10;99.90;;;;;;4916519;29;19927;-62
2022/08/04 02:15:13;;;;;;;;;;;15.20;99.90;;;;;;4915127;29;19949;-63
2022/08/04 02:17:53;;;;;;;;;;;15.20;99.90;;;;;;4916584;29;19927;-63
2022/08/04 02:20:27;;;;;;;;;;;15.30;99.90;;;;;;4914738;29;19927;-63
2022/08/04 02:22:58;;;;;;;;;;;15.30;99.90;;;;;;4916262;29;19934;-63
2022/08/04 02:25:27;;;;;;;;;;;15.30;99.90;;;;;;4913204;29;20386;-64
2022/08/04 02:27:57;;;;;;;;;;;15.30;99.90;;;;;;4906670;29;19927;-63
2022/08/04 02:30:29;;;;;;;;;;;15.30;99.90;;;;;;4900508;29;19928;-61
2022/08/04 02:33:00;;;;;;;;;;;15.30;99.90;;;;;;4913173;29;19927;-63
2022/08/04 02:35:32;;;;;;;;;;;15.30;99.90;;;;;;4915951;29;20334;-62
2022/08/04 02:38:05;;;;;;;;;;;15.30;99.90;;;;;;4914644;29;19927;-63
2022/08/04 02:40:32;;;;;;;;;;;15.20;99.90;;;;;;4904762;29;19927;-62
2022/08/04 02:43:02;;;;;;;;;;;15.20;99.90;;;;;;4916179;29;20544;-62
2022/08/04 02:45:30;;;;;;;;;;;15.10;99.90;;;;;;4915908;29;19927;-62
2022/08/04 02:47:58;;;;;;;;;;;15.10;99.90;;;;;;4914605;29;20103;-62
2022/08/04 02:50:47;;;;;;;;;;;15.10;99.90;;;;;;4915926;29;19934;-61
2022/08/04 02:53:21;;;;;;;;;;;15.00;99.90;;;;;;4915780;29;19934;-63
2022/08/04 02:55:51;;;;;;;;;;;15.00;99.90;;;;;;4915809;29;20326;-63
2022/08/04 02:58:22;;;;;;;;;;;15.00;99.90;;;;;;4914550;29;19927;-63
2022/08/04 03:00:50;;;;;;;;;;;15.00;99.90;;;;;;4915432;29;19928;-63
2022/08/04 03:03:30;;;;;;;;;;;15.00;99.90;;;;;;4916963;29;20272;-63
2022/08/04 03:06:00;;;;;;;;;;;15.00;99.90;;;;;;4915712;29;19934;-62
2022/08/04 03:08:31;;;;;;;;;;;15.00;99.90;;;;;;4913906;29;19928;-62
2022/08/04 03:11:05;;;;;;;;;;;15.00;99.90;;;;;;4921816;29;19927;-63
2022/08/04 03:13:45;;;;;;;;;;;15.10;99.90;;;;;;4914099;29;19934;-63
2022/08/04 03:16:28;;;;;;;;;;;15.10;99.90;;;;;;4898551;29;19943;-63
2022/08/04 03:19:00;;;;;;;;;;;15.10;99.90;;;;;;4901388;29;20294;-61
2022/08/04 03:21:27;;;;;;;;;;;15.20;99.90;;;;;;4914719;29;20294;-63
2022/08/04 03:24:07;;;;;;;;;;;15.20;99.90;;;;;;4905557;29;19939;-62
2022/08/04 03:26:40;;;;;;;;;;;15.20;99.90;;;;;;4918592;29;19938;-62
2022/08/04 03:29:22;;;;;;;;;;;15.20;99.90;;;;;;4932288;29;19934;-62
2022/08/04 03:32:22;;;;;;;;;;;15.30;99.90;;;;;;4911342;29;19927;-62
2022/08/04 03:35:09;;;;;;;;;;;15.30;99.90;;;;;;4899324;29;19946;-63
2022/08/04 03:37:58;;;;;;;;;;;15.30;99.90;;;;;;4900265;29;19928;-62
2022/08/04 03:40:44;;;;;;;;;;;15.20;99.90;;;;;;4918928;29;20382;-63
2022/08/04 03:43:27;;;;;;;;;;;15.30;99.90;;;;;;4909758;29;19927;-62
2022/08/04 03:46:17;;;;;;;;;;;15.20;99.90;;;;;;4903051;29;19938;-61
2022/08/04 03:49:04;;;;;;;;;;;15.20;99.90;;;;;;4916725;29;19927;-62
2022/08/04 03:54:31;;;;;;;;;;;15.20;99.90;;;;;;4906258;29;19927;-61
2022/08/04 03:57:01;;;;;;;;;;;15.20;99.90;;;;;;4910653;29;20383;-60
2022/08/04 03:59:32;;;;;;;;;;;15.20;99.90;;;;;;4899951;29;19935;-61
2022/08/04 04:02:08;;;;;;;;;;;15.20;99.90;;;;;;4899593;29;19958;-61
2022/08/04 04:04:55;;;;;;;;;;;15.30;99.90;;;;;;4898717;29;19927;-60
2022/08/04 04:07:41;;;;;;;;;;;15.30;99.90;;;;;;4899650;29;19934;-63
2022/08/04 04:10:22;;;;;;;;;;;15.30;99.90;;;;;;4898525;29;20950;-63
2022/08/04 04:12:55;;;;;;;;;;;15.30;99.90;;;;;;4899682;29;19935;-62
2022/08/04 04:15:41;;;;;;;;;;;15.30;99.90;;;;;;4899537;29;19954;-61
2022/08/04 04:18:14;;;;;;;;;;;15.30;99.90;;;;;;4899339;29;20390;-60
2022/08/04 04:20:45;;;;;;;;;;;15.20;99.90;;;;;;4899543;29;19927;-61
2022/08/04 04:23:18;;;;;;;;;;;15.10;99.90;;;;;;4909024;29;19950;-62
2022/08/04 04:25:47;;;;;;;;;;;15.00;99.90;;;;;;4916195;29;20434;-61
2022/08/04 04:28:14;;;;;;;;;;;14.90;99.90;;;;;;4917863;29;19927;-63
2022/08/04 04:31:07;;;;;;;;;;;14.80;99.90;;;;;;4918113;29;19927;-61
2022/08/04 04:33:35;;;;;;;;;;;14.70;99.90;;;;;;4917703;29;20537;-61
2022/08/04 04:36:08;;;;;;;;;;;14.60;99.90;;;;;;4916902;29;20429;-59
2022/08/04 04:38:39;;;;;;;;;;;14.60;99.90;;;;;;4918020;29;19927;-60
2022/08/04 04:41:18;;;;;;;;;;;14.50;99.90;;;;;;4917933;29;19931;-60
2022/08/04 04:44:05;;;;;;;;;;;14.40;99.90;;;;;;4916841;29;20401;-60
2022/08/04 04:46:32;;;;;;;;;;;14.40;99.90;;;;;;4899113;29;19935;-60
2022/08/04 04:48:59;;;;;;;;;;;14.30;99.90;;;;;;4894604;29;20045;-60
2022/08/04 04:51:47;;;;;;;;;;;14.30;99.90;;;;;;4909635;29;19928;-58
2022/08/04 04:54:33;;;;;;;;;;;14.30;99.90;;;;;;4913298;29;19927;-58
2022/08/04 04:57:08;;;;;;;;;;;14.30;99.90;;;;;;4894523;29;20295;-59
2022/08/04 04:59:37;;;;;;;;;;;14.30;99.90;;;;;;4910172;29;20283;-62
2022/08/04 05:02:10;;;;;;;;;;;14.40;99.90;;;;;;4899396;29;19931;-62
2022/08/04 05:04:54;;;;;;;;;;;14.40;99.90;;;;;;4895465;29;19927;-57
2022/08/04 05:07:32;;;;;;;;;;;14.40;99.90;;;;;;4910538;29;19935;-58
2022/08/04 05:10:19;;;;;;;;;;;14.40;99.90;;;;;;4911118;29;19927;-62
2022/08/04 05:13:05;;;;;;;;;;;14.50;99.90;;;;;;4910332;29;19928;-61
2022/08/04 05:15:55;;;;;;;;;;;14.50;99.90;;;;;;4911062;29;19927;-61
2022/08/04 05:18:25;;;;;;;;;;;14.60;99.90;;;;;;4913910;29;20306;-61
2022/08/04 05:20:55;;;;;;;;;;;14.60;99.90;;;;;;4913751;29;20314;-61
2022/08/04 05:23:27;;;;;;;;;;;14.60;99.90;;;;;;4902328;29;19928;-62
2022/08/04 05:25:58;;;;;;;;;;;14.60;99.90;;;;;;4894874;29;19931;-60
2022/08/04 05:28:26;;;;;;;;;;;14.70;99.90;;;;;;4906229;29;19934;-60
2022/08/04 05:30:59;;;;;;;;;;;14.70;99.90;;;;;;4913816;29;19928;-63
2022/08/04 05:33:30;;;;;;;;;;;14.70;99.90;;;;;;4912798;29;19934;-61
2022/08/04 05:36:01;;;;;;;;;;;14.80;99.90;;;;;;4910579;29;19934;-62
2022/08/04 05:38:51;;;;;;;;;;;14.80;99.90;;;;;;4910514;29;19927;-63
2022/08/04 05:41:20;;;;;;;;;;;14.90;99.90;;;;;;4912508;29;19927;-62
2022/08/04 05:43:48;;;;;;;;;;;14.90;99.90;;;;;;4909823;29;19934;-61
2022/08/04 05:46:16;;;;;;;;;;;15.00;99.90;;;;;;4928471;29;19938;-61
2022/08/04 05:48:43;;;;;;;;;;;15.00;99.90;;;;;;4917736;29;19927;-60
2022/08/04 05:51:12;;;;;;;;;;;15.10;99.90;;;;;;4913172;29;19935;-61
2022/08/04 05:53:43;;;;;;;;;;;15.10;99.90;;;;;;4914007;29;19946;-61
2022/08/04 05:56:11;;;;;;;;;;;15.10;99.90;;;;;;4928209;29;19943;-60
2022/08/04 05:58:39;;;;;;;;;;;15.10;99.90;;;;;;4905651;29;19931;-60
2022/08/04 06:01:07;;;;;;;;;;;15.10;99.90;;;;;;4893128;29;19939;-60
2022/08/04 06:03:36;;;;;;;;;;;15.20;99.90;;;;;;4903308;29;19939;-60
2022/08/04 06:06:04;;;;;;;;;;;15.20;99.90;;;;;;4910969;29;19938;-61
2022/08/04 06:08:31;;;;;;;;;;;15.20;99.90;;;;;;4911518;29;20401;-60
2022/08/04 06:11:02;;;;;;;;;;;15.10;99.90;;;;;;4908171;29;19928;-60
2022/08/04 06:13:33;;;;;;;;;;;15.10;99.90;;;;;;4906133;29;19931;-57
2022/08/04 06:16:18;;;;;;;;;;;15.10;99.90;;;;;;4893864;29;20290;-60
2022/08/04 06:19:00;;;;;;;;;;;15.00;99.90;;;;;;4906350;29;19935;-61
2022/08/04 06:21:48;;;;;;;;;;;15.00;99.90;;;;;;4903807;29;19931;-58
2022/08/04 06:24:20;;;;;;;;;;;15.00;99.90;;;;;;4910033;29;19933;-61
2022/08/04 06:26:48;;;;;;;;;;;15.00;99.90;;;;;;4906804;29;20171;-58
2022/08/04 06:29:23;;;;;;;;;;;15.00;99.90;;;;;;4901191;29;20279;-61
2022/08/04 06:31:57;;;;;;;;;;;15.00;99.90;;;;;;4894095;29;19927;-62
2022/08/04 06:34:46;;;;;;;;;;;15.00;99.90;;;;;;4905666;29;19940;-61
2022/08/04 06:37:14;;;;;;;;;;;15.10;99.90;;;;;;4909781;29;19961;-62
2022/08/04 06:40:02;;;;;;;;;;;15.20;99.90;;;;;;4905186;29;20264;-61
2022/08/04 06:42:50;;;;;;;;;;;15.30;99.90;;;;;;4913016;29;19928;-60
2022/08/04 06:45:18;;;;;;;;;;;15.40;99.90;;;;;;4906624;29;19931;-61
2022/08/04 06:47:47;;;;;;;;;;;15.40;99.90;;;;;;4910010;29;19935;-60
2022/08/04 06:50:15;;;;;;;;;;;15.40;99.90;;;;;;4908878;29;20340;-59
2022/08/04 06:53:03;;;;;;;;;;;15.30;99.90;;;;;;4909674;29;19927;-59
2022/08/04 06:55:32;;;;;;;;;;;15.20;99.90;;;;;;4912609;29;19927;-61
2022/08/04 06:58:00;;;;;;;;;;;15.10;99.90;;;;;;4908323;29;19938;-58
2022/08/04 07:00:30;;;;;;;;;;;15.10;99.90;;;;;;4900725;29;19942;-58
2022/08/04 07:02:58;;;;;;;;;;;15.00;99.90;;;;;;4907599;29;20143;-57
2022/08/04 07:05:26;;;;;;;;;;;15.10;99.90;;;;;;4898805;29;19931;-56
2022/08/04 07:07:55;;;;;;;;;;;15.10;99.90;;;;;;4907628;29;19927;-56
2022/08/04 07:10:28;;;;;;;;;;;15.10;99.90;;;;;;4895581;29;19927;-56
2022/08/04 07:12:56;;;;;;;;;;;15.20;99.90;;;;;;4906267;29;19942;-61
2022/08/04 07:15:24;;;;;;;;;;;15.30;99.90;;;;;;4909925;29;19942;-62
2022/08/04 07:17:52;;;;;;;;;;;15.30;99.90;;;;;;4910483;29;20311;-57
2022/08/04 07:20:20;;;;;;;;;;;15.30;99.90;;;;;;4903040;29;20307;-61
2022/08/04 07:23:03;;;;;;;;;;;15.30;99.90;;;;;;4911048;29;19931;-60
2022/08/04 07:25:32;;;;;;;;;;;15.20;99.90;;;;;;4921588;29;20375;-60
2022/08/04 07:28:20;;;;;;;;;;;15.10;99.90;;;;;;4907438;29;19938;-61
2022/08/04 07:30:48;;;;;;;;;;;15.00;99.90;;;;;;4909722;29;19935;-58
2022/08/04 07:33:16;;;;;;;;;;;15.00;99.90;;;;;;4910834;29;19935;-59
2022/08/04 07:35:46;;;;;;;;;;;14.90;99.90;;;;;;4905954;29;20302;-62
2022/08/04 07:38:33;;;;;;;;;;;14.90;99.90;;;;;;4904342;29;19927;-62
2022/08/04 07:41:14;;;;;;;;;;;15.00;99.90;;;;;;4912514;29;19938;-60
2022/08/04 07:44:02;;;;;;;;;;;15.00;99.90;;;;;;4911855;29;19927;-59
2022/08/04 07:46:30;;;;;;;;;;;15.20;99.90;;;;;;4912291;29;19927;-57
2022/08/04 07:49:01;;;;;;;;;;;15.20;99.90;;;;;;4911696;29;19931;-59
2022/08/04 07:51:29;;;;;;;;;;;15.20;99.90;;;;;;4911956;29;19927;-62
2022/08/04 07:53:59;;;;;;;;;;;15.30;99.90;;;;;;4900361;29;19938;-60
2022/08/04 07:56:27;;;;;;;;;;;15.30;99.90;;;;;;4893604;29;19931;-56
2022/08/04 07:59:01;;;;;;;;;;;15.40;99.90;;;;;;4907775;29;19931;-60
2022/08/04 08:01:29;;;;;;;;;;;15.40;99.90;;;;;;4911392;29;20382;-61
2022/08/04 08:03:59;;;;;;;;;;;15.50;99.90;;;;;;4911501;29;19958;-61
2022/08/04 08:06:28;;;;;;;;;;;15.50;99.90;;;;;;4911921;29;19986;-62
2022/08/04 08:09:06;;;;;;;;;;;15.50;99.90;;;;;;4912707;29;19927;-61
2022/08/04 08:11:45;;;;;;;;;;;15.60;99.90;;;;;;4915861;29;20291;-61
2022/08/04 08:14:34;;;;;;;;;;;15.60;99.90;;;;;;4892761;29;19927;-61
2022/08/04 08:17:02;;;;;;;;;;;15.60;99.90;;;;;;4910028;29;19931;-60
2022/08/04 08:19:30;;;;;;;;;;;15.70;99.90;;;;;;4914896;29;20323;-60
2022/08/04 08:21:58;;;;;;;;;;;15.70;99.90;;;;;;4915112;29;20311;-61
2022/08/04 08:24:33;;;;;;;;;;;15.70;99.90;;;;;;4896949;29;19927;-61
2022/08/04 08:27:05;;;;;;;;;;;15.80;99.90;;;;;;4896299;29;19935;-59
2022/08/04 08:29:34;;;;;;;;;;;15.90;99.90;;;;;;4929319;29;19927;-61
2022/08/04 08:32:02;;;;;;;;;;;16.00;99.90;;;;;;4914799;29;19942;-60
2022/08/04 08:34:36;;;;;;;;;;;16.00;99.90;;;;;;4915167;29;20306;-61
2022/08/04 08:37:11;;;;;;;;;;;16.10;99.90;;;;;;4913859;29;19931;-61
2022/08/04 08:39:41;;;;;;;;;;;16.10;99.90;;;;;;4897417;29;19931;-62
2022/08/04 08:42:11;;;;;;;;;;;16.20;99.90;;;;;;4898624;29;20383;-62
2022/08/04 08:44:42;;;;;;;;;;;16.20;99.90;;;;;;4920195;29;19927;-60
2022/08/04 08:47:27;;;;;;;;;;;16.30;99.90;;;;;;4933476;29;20429;-61
2022/08/04 08:50:09;;;;;;;;;;;16.40;99.90;;;;;;4895620;29;19928;-57
2022/08/04 08:52:37;;;;;;;;;;;16.50;99.90;;;;;;4901481;29;20005;-62
2022/08/04 08:55:43;;;;;;;;;;;16.50;99.90;;;;;;4911820;29;19927;-61
2022/08/04 08:58:22;;;;;;;;;;;16.60;99.90;;;;;;4911170;29;19928;-59
2022/08/04 09:01:24;;;;;;;;;;;16.70;99.90;;;;;;4895269;29;20322;-61
2022/08/04 09:04:13;;;;;;;;;;;16.70;99.90;;;;;;4869980;29;19928;-62
2022/08/04 09:06:56;;;;;;;;;;;16.80;99.90;;;;;;4910237;29;19942;-62
2022/08/04 09:09:39;;;;;;;;;;;16.80;99.90;;;;;;4893977;29;19935;-60
2022/08/04 09:12:13;;;;;;;;;;;16.80;99.90;;;;;;4914210;29;19935;-61
2022/08/04 09:14:51;;;;;;;;;;;16.80;99.90;;;;;;4914387;29;20279;-60
2022/08/04 09:17:26;;;;;;;;;;;16.90;99.90;;;;;;4914227;29;20064;-61
2022/08/04 09:20:05;;;;;;;;;;;16.90;99.90;;;;;;4912699;29;19950;-62
2022/08/04 09:22:37;;;;;;;;;;;16.90;99.90;;;;;;4914107;29;20386;-59
2022/08/04 09:25:09;;;;;;;;;;;16.90;99.90;;;;;;4914073;29;20218;-61
2022/08/04 09:27:42;;;;;;;;;;;16.90;99.90;;;;;;4913936;29;20415;-59
2022/08/04 09:30:12;;;;;;;;;;;16.90;99.90;;;;;;4913871;29;20314;-61
2022/08/04 09:32:46;;;;;;;;;;;17.00;99.90;;;;;;4905312;29;19927;-57
2022/08/04 09:35:25;;;;;;;;;;;17.00;99.90;;;;;;4920866;29;19927;-62
2022/08/04 09:38:11;;;;;;;;;;;17.10;99.90;;;;;;4899167;29;19938;-59
2022/08/04 09:41:02;;;;;;;;;;;17.20;99.90;;;;;;4912467;29;19927;-60
2022/08/04 09:44:05;;;;;;;;;;;17.30;99.90;;;;;;4913248;29;19936;-59
2022/08/04 09:46:58;;;;;;;;;;;17.40;99.90;;;;;;4894888;29;19927;-61
2022/08/04 09:49:33;;;;;;;;;;;17.70;99.90;;;;;;4911950;29;19938;-61
2022/08/04 09:52:03;;;;;;;;;;;17.80;99.80;;;;;;4913508;29;19950;-57
2022/08/04 09:54:48;;;;;;;;;;;17.70;99.30;;;;;;4894368;29;20261;-57
2022/08/04 09:57:15;;;;;;;;;;;17.70;99.50;;;;;;4912443;29;19927;-59
2022/08/04 10:00:03;;;;;;;;;;;17.70;99.70;;;;;;4906553;29;19938;-59
2022/08/04 10:02:40;;;;;;;;;;;17.80;99.60;;;;;;4909584;29;19938;-60
2022/08/04 10:05:13;;;;;;;;;;;17.90;98.80;;;;;;4923931;29;19932;-57
2022/08/04 10:07:44;;;;;;;;;;;18.00;99.00;;;;;;4902362;29;19936;-60
2022/08/04 10:10:46;;;;;;;;;;;18.10;99.20;;;;;;4901296;29;19931;-57
2022/08/04 10:13:24;;;;;;;;;;;18.30;99.30;;;;;;4908750;29;19927;-59
2022/08/04 10:16:11;;;;;;;;;;;18.50;98.70;;;;;;4907977;29;19934;-58
2022/08/04 10:18:44;;;;;;;;;;;18.70;98.70;;;;;;4908990;29;19946;-60
2022/08/04 10:21:15;;;;;;;;;;;19.00;98.60;;;;;;4912266;29;20304;-60
2022/08/04 10:23:50;;;;;;;;;;;19.20;98.00;;;;;;4909015;29;20587;-59
2022/08/04 10:26:46;;;;;;;;;;;19.30;97.00;;;;;;4901169;29;19934;-60
2022/08/04 10:29:18;;;;;;;;;;;19.20;96.60;;;;;;4911713;29;19927;-59
2022/08/04 10:32:03;;;;;;;;;;;19.10;97.20;;;;;;4909857;29;19942;-61
2022/08/04 10:34:35;;;;;;;;;;;19.10;97.60;;;;;;4896144;29;19958;-62
2022/08/04 10:37:08;;;;;;;;;;;19.20;97.60;;;;;;4898745;29;19934;-61
2022/08/04 10:39:41;;;;;;;;;;;19.20;96.70;;;;;;4910084;29;19931;-61
2022/08/04 10:42:24;;;;;;;;;;;19.30;97.30;;;;;;4905798;29;19927;-59
2022/08/04 10:45:09;;;;;;;;;;;19.40;97.10;;;;;;4915495;29;19946;-61
2022/08/04 10:47:42;;;;;;;;;;;19.60;97.80;;;;;;4911015;29;19931;-59
2022/08/04 10:50:20;;;;;;;;;;;19.90;97.20;;;;;;4893956;29;19927;-63
2022/08/04 10:52:54;;;;;;;;;;;20.00;97.00;;;;;;4904591;29;19931;-58
2022/08/04 10:55:51;;;;;;;;;;;20.20;97.10;;;;;;4903399;29;19927;-59
2022/08/04 10:58:41;;;;;;;;;;;20.40;95.70;;;;;;4900582;29;19935;-61
2022/08/04 11:01:32;;;;;;;;;;;20.40;95.70;;;;;;4907361;29;19927;-59
2022/08/04 11:04:19;;;;;;;;;;;20.30;95.50;;;;;;4906940;29;19943;-62
2022/08/04 11:06:55;;;;;;;;;;;20.20;95.60;;;;;;4893263;29;19931;-59
2022/08/04 11:09:22;;;;;;;;;;;19.90;96.00;;;;;;4901674;29;20298;-63
2022/08/04 11:11:55;;;;;;;;;;;19.80;96.90;;;;;;4902741;29;19935;-63
2022/08/04 11:14:44;;;;;;;;;;;19.70;97.50;;;;;;4898548;29;19931;-60
2022/08/04 11:17:19;;;;;;;;;;;19.80;98.00;;;;;;4892384;29;19932;-61
2022/08/04 11:19:48;;;;;;;;;;;19.80;96.90;;;;;;4908622;29;20175;-61
2022/08/04 11:22:20;;;;;;;;;;;19.70;97.10;;;;;;4908640;29;19927;-62
2022/08/04 11:25:10;;;;;;;;;;;19.80;97.00;;;;;;4909561;29;19931;-62
2022/08/04 11:27:57;;;;;;;;;;;19.70;97.10;;;;;;4910582;29;20163;-62
2022/08/04 11:30:29;;;;;;;;;;;19.60;97.90;;;;;;4910384;29;19938;-58
2022/08/04 11:33:06;;;;;;;;;;;19.50;97.60;;;;;;4908782;29;19928;-63
2022/08/04 11:35:49;;;;;;;;;;;19.30;98.00;;;;;;4902428;29;19927;-62
2022/08/04 11:38:35;;;;;;;;;;;19.20;98.60;;;;;;4902534;29;20283;-61
2022/08/04 11:41:06;;;;;;;;;;;19.10;99.00;;;;;;4909409;29;19934;-62
2022/08/04 11:43:37;;;;;;;;;;;19.30;98.00;;;;;;4909017;29;20061;-62
2022/08/04 11:46:37;;;;;;;;;;;19.50;98.20;;;;;;4915659;29;19927;-62
2022/08/04 11:49:14;;;;;;;;;;;19.80;98.80;;;;;;4913157;29;20287;-61
2022/08/04 11:51:43;;;;;;;;;;;20.30;98.00;;;;;;4911146;29;19927;-62
2022/08/04 11:54:11;;;;;;;;;;;20.50;96.70;;;;;;4907167;29;19927;-62
2022/08/04 11:56:38;;;;;;;;;;;20.40;96.10;;;;;;4890483;29;19928;-61
2022/08/04 11:59:07;;;;;;;;;;;20.30;96.00;;;;;;4906422;29;19938;-62
2022/08/04 12:01:46;;;;;;;;;;;20.00;95.30;;;;;;4906944;29;20405;-61
2022/08/04 12:04:14;;;;;;;;;;;19.80;95.60;;;;;;4913605;29;19933;-62
2022/08/04 12:06:47;;;;;;;;;;;19.90;96.40;;;;;;4903774;29;19927;-56
2022/08/04 12:09:26;;;;;;;;;;;20.20;96.30;;;;;;4913395;29;20383;-57
2022/08/04 12:11:54;;;;;;;;;;;20.70;95.80;;;;;;4912298;29;19934;-59
2022/08/04 12:14:40;;;;;;;;;;;21.10;95.50;;;;;;4914993;29;19934;-59
2022/08/04 12:17:09;;;;;;;;;;;21.40;94.30;;;;;;4904888;29;19928;-57
2022/08/04 12:19:44;;;;;;;;;;;21.50;93.30;;;;;;4914094;29;19932;-57
2022/08/04 12:22:33;;;;;;;;;;;21.80;93.20;;;;;;4912394;29;20334;-62
2022/08/04 12:25:05;;;;;;;;;;;22.40;93.60;;;;;;4914511;29;19947;-61
2022/08/04 12:27:38;;;;;;;;;;;22.40;91.10;;;;;;4906430;29;19942;-59
2022/08/04 12:30:07;;;;;;;;;;;22.20;90.10;;;;;;4915168;29;19927;-58
2022/08/04 12:33:04;;;;;;;;;;;21.90;89.90;;;;;;4914941;29;19931;-58
2022/08/04 12:35:52;;;;;;;;;;;21.90;90.30;;;;;;4915130;29;19927;-60
2022/08/04 12:38:43;;;;;;;;;;;22.10;89.70;;;;;;4914698;29;19928;-60
2022/08/04 12:41:12;;;;;;;;;;;22.70;90.60;;;;;;4914544;29;19938;-59
2022/08/04 12:43:45;;;;;;;;;;;23.30;90.40;;;;;;4918743;29;19931;-59
2022/08/04 12:46:23;;;;;;;;;;;23.90;87.80;;;;;;4932445;29;19927;-59
2022/08/04 12:48:51;;;;;;;;;;;24.00;84.70;;;;;;4921277;29;19927;-58
2022/08/04 12:51:19;;;;;;;;;;;23.90;84.70;;;;;;4914373;29;19934;-58
2022/08/04 12:54:08;;;;;;;;;;;24.20;86.30;;;;;;4920699;29;20407;-58
2022/08/04 12:56:35;;;;;;;;;;;24.80;85.10;;;;;;4908815;29;20293;-57
2022/08/04 12:59:07;;;;;;;;;;;24.70;81.80;;;;;;4922243;29;19934;-58
2022/08/04 13:01:44;;;;;;;;;;;24.50;80.60;;;;;;4911075;29;19938;-61
2022/08/04 13:04:33;;;;;;;;;;;23.90;79.60;;;;;;4931013;29;19927;-62
2022/08/04 13:07:05;;;;;;;;;;;23.30;81.20;;;;;;4912076;29;19927;-59
2022/08/04 13:09:33;;;;;;;;;;;23.20;83.00;;;;;;4908340;29;19939;-60
2022/08/04 13:12:02;;;;;;;;;;;23.50;84.20;;;;;;4910042;29;20371;-61
2022/08/04 13:14:32;;;;;;;;;;;23.70;81.90;;;;;;4911266;29;19948;-62
2022/08/04 13:17:00;;;;;;;;;;;24.00;81.80;;;;;;4894729;29;19934;-58
2022/08/04 13:19:29;;;;;;;;;;;24.10;81.70;;;;;;4911146;29;19927;-58
2022/08/04 13:21:59;;;;;;;;;;;24.00;80.80;;;;;;4903540;29;19933;-61
2022/08/04 13:24:30;;;;;;;;;;;24.20;81.70;;;;;;4918911;29;19954;-61
2022/08/04 13:27:07;;;;;;;;;;;24.50;81.30;;;;;;4908596;29;21157;-58
2022/08/04 13:29:37;;;;;;;;;;;24.50;78.70;;;;;;4904801;29;20391;-58
2022/08/04 13:32:25;;;;;;;;;;;24.00;77.40;;;;;;4894136;29;19935;-57
2022/08/04 13:34:53;;;;;;;;;;;23.30;78.30;;;;;;4900923;29;19931;-62
2022/08/04 13:37:24;;;;;;;;;;;22.80;79.30;;;;;;4903067;29;19931;-57
2022/08/04 13:39:53;;;;;;;;;;;22.30;80.20;;;;;;4902476;29;19934;-58
2022/08/04 13:42:24;;;;;;;;;;;21.90;81.30;;;;;;4909618;29;19934;-57
2022/08/04 13:44:53;;;;;;;;;;;21.50;82.20;;;;;;4932634;29;19927;-56
2022/08/04 13:47:26;;;;;;;;;;;21.20;83.30;;;;;;4926060;29;19927;-57
2022/08/04 13:50:09;;;;;;;;;;;20.90;83.50;;;;;;4913537;29;19927;-57
2022/08/04 13:52:38;;;;;;;;;;;20.60;83.00;;;;;;4913314;29;19934;-58
2022/08/04 13:55:06;;;;;;;;;;;20.40;83.00;;;;;;4927940;29;19927;-58
2022/08/04 13:57:41;;;;;;;;;;;20.30;84.50;;;;;;4901283;29;19939;-58
2022/08/04 14:00:10;;;;;;;;;;;20.30;84.40;;;;;;4913794;29;19935;-58
2022/08/04 14:02:45;;;;;;;;;;;20.40;87.00;;;;;;4896549;29;19927;-59
2022/08/04 14:05:18;;;;;;;;;;;21.00;88.10;;;;;;4903563;29;19928;-61
2022/08/04 14:07:48;;;;;;;;;;;21.80;85.70;;;;;;4893976;29;19938;-58
2022/08/04 14:10:16;;;;;;;;;;;22.70;83.80;;;;;;4910967;29;19927;-62
2022/08/04 14:12:48;;;;;;;;;;;23.40;81.00;;;;;;4912978;29;19927;-59
2022/08/04 14:15:34;;;;;;;;;;;24.00;78.50;;;;;;4911685;29;19927;-57
2022/08/04 14:18:24;;;;;;;;;;;24.10;77.90;;;;;;4925085;29;19934;-57
2022/08/04 14:21:07;;;;;;;;;;;23.70;76.10;;;;;;4913165;29;20291;-57
2022/08/04 14:23:39;;;;;;;;;;;23.40;78.20;;;;;;4912854;29;19931;-58
2022/08/04 14:26:15;;;;;;;;;;;23.50;79.40;;;;;;4911666;29;20310;-58
2022/08/04 14:28:43;;;;;;;;;;;23.40;77.50;;;;;;4904677;29;20526;-57
2022/08/04 14:31:30;;;;;;;;;;;23.00;77.10;;;;;;4912823;29;19935;-57
2022/08/04 14:33:58;;;;;;;;;;;22.80;78.20;;;;;;4912806;29;19931;-60
2022/08/04 14:36:41;;;;;;;;;;;22.60;77.90;;;;;;4911987;29;19931;-59
2022/08/04 14:39:36;;;;;;;;;;;22.90;80.60;;;;;;4912679;29;19927;-63
2022/08/04 14:42:05;;;;;;;;;;;23.40;79.30;;;;;;4908349;29;20319;-63
2022/08/04 14:44:51;;;;;;;;;;;24.50;77.30;;;;;;4912696;29;19927;-61
2022/08/04 14:47:27;;;;;;;;;;;25.00;73.80;;;;;;4927584;29;19935;-61
2022/08/04 14:49:54;;;;;;;;;;;24.70;71.60;;;;;;4893786;29;19928;-58
2022/08/04 14:52:24;;;;;;;;;;;24.20;72.70;;;;;;4895997;29;19931;-62
2022/08/04 14:54:51;;;;;;;;;;;23.70;73.50;;;;;;4912600;29;19927;-60
2022/08/04 14:57:19;;;;;;;;;;;23.40;75.40;;;;;;4912477;29;19927;-59
2022/08/04 14:59:47;;;;;;;;;;;23.40;77.00;;;;;;4930777;29;19931;-59
2022/08/04 15:02:28;;;;;;;;;;;23.80;77.30;;;;;;4897671;29;19942;-63
2022/08/04 15:04:57;;;;;;;;;;;24.00;75.00;;;;;;4912671;29;20349;-61
2022/08/04 15:07:25;;;;;;;;;;;24.00;74.00;;;;;;4911398;29;19927;-63
2022/08/04 15:09:53;;;;;;;;;;;23.90;72.90;;;;;;4912497;29;19928;-63
2022/08/04 15:12:21;;;;;;;;;;;23.60;72.90;;;;;;4912238;29;19938;-60